Alvin, Texas
Current Conditions -  °F | °C
As of 4:53 PM on Saturday 25 Oct 2014 (Local Time) from KLVJ Reporting Station
Clear Clear  
Wind Chill: 84°   Ceiling: Unl
Heat Index: 84°   Visibility: 10mi
Dew Point: 51°   Wind: 7mph
Humidity: 32%   Direction: 130°SE
Pressure: 30.11"   Gusts: NA
Location:  29.42°N, 95.24°W
Report Text: KLVJ 252153Z AUTO 13006KT 10SM CLR 29/11 A3011 RMK AO2 SLP196 T02890106
Loading
Personal Weather Stations






























Interactive Weather Map
Tropical Storm Tracking
New forecast layout! Learn more

10-Day Weather Forecast

Advertisements
Track Severe Weather on mobile